Time;durP1;ratioP1;P1;durP2;ratioP2;P2;SDS_P1;SDS_P2;PMS_P1;PMS_P2;Temp;Humidity;BMP_temperature;BMP_pressure;BME280_temperature;BME280_humidity;BME280_pressure;Samples;Min_cycle;Max_cycle;Signal;HPM_P1;HPM_P2
2023/05/02 00:07:46;;;;;;;3.15;0.77;;;;;;;20.30;42.87;99475.75;20974766;28;20024;-73
2023/05/02 00:17:48;;;;;;;0.85;0.75;;;;;;;20.56;43.10;99534.38;20989036;28;20049;-74
2023/05/02 00:27:49;;;;;;;0.45;0.45;;;;;;;20.66;42.68;99535.28;20991071;28;20048;-74
2023/05/02 00:37:51;;;;;;;1.35;0.60;;;;;;;20.77;42.77;99554.19;20979373;28;20045;-74
2023/05/02 00:47:52;;;;;;;1.52;0.68;;;;;;;20.68;43.12;99541.38;20974243;28;20024;-73
2023/05/02 00:57:54;;;;;;;0.85;0.70;;;;;;;20.76;43.04;99563.69;20985218;28;20067;-74
2023/05/02 01:08:15;;;;;;;1.13;0.40;;;;;;;20.65;43.11;99551.13;20971340;28;20032;-73
2023/05/02 01:18:23;;;;;;;1.33;0.55;;;;;;;20.48;43.45;99523.16;20916664;28;20447;-73
2023/05/02 01:28:36;;;;;;;1.45;0.50;;;;;;;20.73;43.52;99567.06;20955248;28;20032;-73
2023/05/02 01:38:41;;;;;;;1.02;0.70;;;;;;;20.76;43.60;99572.03;20935278;28;20036;-73
2023/05/02 01:48:48;;;;;;;0.60;0.60;;;;;;;20.58;43.51;99536.88;20935062;28;20041;-73
2023/05/02 01:58:55;;;;;;;0.70;0.50;;;;;;;20.75;43.60;99559.25;20882132;28;20053;-73
2023/05/02 02:08:56;;;;;;;2.17;0.75;;;;;;;20.67;43.03;99548.88;20906551;28;20094;-74
2023/05/02 02:19:08;;;;;;;0.40;0.40;;;;;;;20.73;43.65;99544.84;20947063;28;20049;-73
2023/05/02 02:29:13;;;;;;;4.22;0.95;;;;;;;20.50;43.24;99502.28;20938979;28;20029;-74
2023/05/02 02:39:20;;;;;;;0.70;0.70;;;;;;;20.92;43.13;99543.84;20905267;28;20381;-74
2023/05/02 02:49:44;;;;;;;4.78;0.93;;;;;;;20.97;42.87;99560.41;20911630;28;20384;-74
2023/05/02 03:00:09;;;;;;;1.10;0.80;;;;;;;21.01;42.74;99642.09;20903786;28;20542;-74
2023/05/02 03:10:11;;;;;;;2.33;0.70;;;;;;;21.04;42.66;99610.88;20863531;28;20103;-74
2023/05/02 03:20:12;;;;;;;6.13;1.10;;;;;;;21.05;42.88;99604.16;20942455;28;20041;-74
2023/05/02 03:30:13;;;;;;;1.55;0.80;;;;;;;20.67;43.20;99551.66;20954371;28;20384;-74
2023/05/02 03:40:15;;;;;;;1.88;0.80;;;;;;;21.02;43.22;99593.66;20972303;28;20029;-74
2023/05/02 03:50:19;;;;;;;2.72;0.82;;;;;;;20.29;44.08;99467.72;20936827;28;20086;-76
2023/05/02 04:00:21;;;;;;;5.60;1.13;;;;;;;20.83;46.49;99529.06;20965609;28;20041;-74
2023/05/02 04:10:23;;;;;;;3.45;0.90;;;;;;;20.80;46.89;99536.91;20984251;28;20071;-74
2023/05/02 04:20:24;;;;;;;9.30;1.48;;;;;;;20.89;46.55;99536.13;21003705;28;20036;-75
2023/05/02 04:30:26;;;;;;;3.58;1.05;;;;;;;20.90;45.92;99537.81;21004307;28;20056;-75
2023/05/02 04:40:27;;;;;;;1.83;0.90;;;;;;;21.05;45.53;99540.19;20948744;28;20037;-74
2023/05/02 04:50:29;;;;;;;3.10;1.05;;;;;;;21.04;45.60;99549.69;21008531;28;20025;-74
2023/05/02 05:00:30;;;;;;;1.55;0.90;;;;;;;20.87;45.76;99522.56;21008200;28;20078;-74
2023/05/02 05:10:31;;;;;;;1.08;0.75;;;;;;;20.78;45.60;99496.63;20992658;28;20078;-73
2023/05/02 05:20:32;;;;;;;2.65;1.00;;;;;;;20.91;45.69;99514.41;20994854;28;20037;-75
2023/05/02 05:30:36;;;;;;;1.90;0.82;;;;;;;20.92;45.52;99507.72;20907287;28;20475;-75
2023/05/02 05:40:38;;;;;;;2.72;0.80;;;;;;;20.80;45.48;99467.41;20987150;28;20033;-75
2023/05/02 05:50:42;;;;;;;1.15;0.60;;;;;;;20.79;45.55;99464.91;20933358;28;20037;-75
2023/05/02 06:00:45;;;;;;;1.40;0.80;;;;;;;20.87;45.53;99457.78;20963255;28;20041;-76
2023/05/02 06:10:49;;;;;;;1.35;0.90;;;;;;;20.84;45.51;99450.06;20993690;28;20058;-75
2023/05/02 06:20:51;;;;;;;0.90;0.80;;;;;;;20.84;45.32;99438.94;20982280;28;20044;-75
2023/05/02 06:31:03;;;;;;;0.70;0.70;;;;;;;20.57;45.28;99376.78;20995466;28;20037;-74
2023/05/02 06:41:04;;;;;;;1.25;0.68;;;;;;;20.61;45.13;99386.13;20911999;28;20022;-75
2023/05/02 06:51:06;;;;;;;1.38;0.70;;;;;;;20.75;45.30;99414.69;20929275;28;20049;-75
2023/05/02 07:01:07;;;;;;;1.08;0.75;;;;;;;20.65;45.36;99398.25;20923778;28;20045;-74
2023/05/02 07:11:08;;;;;;;1.40;0.85;;;;;;;20.58;45.46;99385.97;20907151;28;20036;-74
2023/05/02 07:21:10;;;;;;;1.15;0.55;;;;;;;20.72;45.40;99397.84;20926987;28;20037;-74
2023/05/02 07:31:14;;;;;;;2.15;0.60;;;;;;;20.24;45.33;99315.88;20914797;28;20484;-73
2023/05/02 07:41:16;;;;;;;2.28;0.60;;;;;;;20.66;45.25;99372.09;21001129;28;20371;-73
2023/05/02 07:51:19;;;;;;;0.73;0.60;;;;;;;20.53;45.13;99348.00;20988675;28;20028;-73
2023/05/02 08:01:20;;;;;;;0.85;0.40;;;;;;;20.71;45.14;99377.56;21008946;28;20541;-74
2023/05/02 08:11:24;;;;;;;1.58;0.80;;;;;;;20.71;45.22;99394.25;21005922;28;20028;-74
2023/05/02 08:21:26;;;;;;;0.70;0.65;;;;;;;20.71;44.96;99397.03;21005978;28;20557;-74
2023/05/02 08:31:27;;;;;;;1.98;0.57;;;;;;;20.54;45.15;99372.69;21007947;28;20037;-75
2023/05/02 08:41:32;;;;;;;0.75;0.60;;;;;;;20.64;44.98;99385.50;20986288;28;20090;-74
2023/05/02 08:51:35;;;;;;;0.88;0.75;;;;;;;20.71;44.75;99413.69;21087414;28;20058;-74
2023/05/02 09:01:37;;;;;;;0.90;0.77;;;;;;;20.71;44.53;99402.56;21056671;28;20085;-76
2023/05/02 09:11:39;;;;;;;0.80;0.60;;;;;;;20.69;44.67;99401.25;21085730;28;20401;-74
2023/05/02 09:21:41;;;;;;;1.50;0.40;;;;;;;20.63;44.85;99411.66;21085238;28;20609;-74
2023/05/02 09:31:45;;;;;;;0.73;0.60;;;;;;;20.59;44.55;99410.66;21046663;28;20537;-74
2023/05/02 09:41:48;;;;;;;1.70;0.50;;;;;;;20.54;44.66;99419.94;21002231;28;20031;-74
2023/05/02 09:51:49;;;;;;;0.75;0.68;;;;;;;20.71;44.50;99457.31;21082577;28;20032;-74
2023/05/02 10:02:01;;;;;;;0.90;0.50;;;;;;;20.45;44.51;99421.78;21082265;28;20032;-74
2023/05/02 10:12:07;;;;;;;0.47;0.47;;;;;;;20.59;44.21;99452.34;21080457;28;20475;-73
2023/05/02 10:22:10;;;;;;;0.63;0.50;;;;;;;20.67;44.29;99471.06;21080343;28;20032;-73
2023/05/02 10:32:13;;;;;;;0.88;0.70;;;;;;;20.70;44.08;99495.41;21061870;28;20028;-73
2023/05/02 10:42:17;;;;;;;0.43;0.38;;;;;;;20.68;44.09;99497.72;21077553;28;20097;-74
2023/05/02 10:52:28;;;;;;;0.50;0.50;;;;;;;20.61;44.34;99508.41;21078538;28;20082;-74
2023/05/02 11:02:34;;;;;;;0.40;0.40;;;;;;;20.60;44.42;99514.31;21043151;28;20078;-74
2023/05/02 11:12:49;;;;;;;0.60;0.50;;;;;;;20.57;44.38;99521.28;20997024;28;20028;-74
2023/05/02 11:22:54;;;;;;;0.60;0.50;;;;;;;20.59;44.38;99526.56;21056632;28;20062;-74
2023/05/02 11:32:57;;;;;;;1.27;0.73;;;;;;;20.55;44.36;99534.69;21006012;28;20047;-74
2023/05/02 11:43:00;;;;;;;0.65;0.60;;;;;;;20.35;44.42;99529.56;20991859;28;20414;-75
2023/05/02 11:53:01;;;;;;;4.47;0.60;;;;;;;20.34;44.45;99530.69;20992252;28;20536;-74
2023/05/02 12:03:03;;;;;;;5.40;0.80;;;;;;;20.30;44.51;99531.31;20991481;28;20063;-75
2023/05/02 12:13:05;;;;;;;2.15;0.80;;;;;;;20.48;44.02;99565.69;20986989;28;20044;-75
2023/05/02 12:23:12;;;;;;;2.33;0.68;;;;;;;20.31;43.84;99537.69;21049923;28;20045;-75
2023/05/02 12:33:15;;;;;;;3.22;0.90;;;;;;;20.05;43.97;99484.63;20992602;28;20044;-75
2023/05/02 12:43:18;;;;;;;5.13;0.65;;;;;;;20.62;44.03;99565.69;21005023;28;20040;-73
2023/05/02 12:53:39;;;;;;;3.13;0.60;;;;;;;20.63;43.88;99569.28;21000678;28;20032;-73
2023/05/02 13:03:42;;;;;;;0.85;0.60;;;;;;;20.58;43.72;99552.72;21016687;28;20110;-73
2023/05/02 13:13:44;;;;;;;0.80;0.55;;;;;;;20.71;43.84;99546.28;20982941;28;20098;-74
2023/05/02 13:23:54;;;;;;;7.60;1.08;;;;;;;20.62;43.72;99526.75;20999811;28;20032;-73
2023/05/02 13:33:55;;;;;;;2.10;0.68;;;;;;;20.34;43.67;99477.91;20946062;28;20118;-72
2023/05/02 13:43:56;;;;;;;2.50;0.82;;;;;;;20.59;43.66;99512.66;20951157;28;20075;-73
2023/05/02 13:53:58;;;;;;;3.08;0.55;;;;;;;20.68;43.78;99536.63;20998230;28;20035;-73
2023/05/02 14:04:05;;;;;;;0.68;0.40;;;;;;;20.66;43.69;99527.75;20998143;28;20032;-73
2023/05/02 14:14:07;;;;;;;4.18;0.77;;;;;;;20.58;43.67;99509.06;20975399;28;20048;-73
2023/05/02 14:24:11;;;;;;;1.63;0.60;;;;;;;20.54;43.61;99500.53;20994096;28;20043;-73
2023/05/02 14:34:12;;;;;;;4.53;0.50;;;;;;;20.73;43.68;99517.03;20994174;28;20033;-73
2023/05/02 14:44:13;;;;;;;1.55;0.70;;;;;;;20.64;43.40;99513.38;20955415;28;20416;-73
2023/05/02 14:54:15;;;;;;;2.28;0.50;;;;;;;20.71;43.65;99513.78;20991138;28;20132;-74
2023/05/02 15:04:18;;;;;;;2.15;0.50;;;;;;;20.72;43.80;99515.41;20979730;28;20029;-74
2023/05/02 15:14:20;;;;;;;1.00;0.60;;;;;;;20.49;43.29;99500.66;20977185;28;20040;-73
2023/05/02 15:24:21;;;;;;;1.38;0.40;;;;;;;20.54;43.62;99477.47;20995316;28;20036;-73
2023/05/02 15:34:22;;;;;;;1.23;0.43;;;;;;;20.58;43.25;99489.63;20972481;28;20052;-72
2023/05/02 15:44:25;;;;;;;4.03;0.70;;;;;;;20.31;43.41;99432.94;20966622;28;20047;-73
2023/05/02 15:54:26;;;;;;;5.00;0.80;;;;;;;20.68;43.54;99475.47;20986562;28;20113;-73
2023/05/02 16:04:34;;;;;;;3.65;0.70;;;;;;;20.75;43.32;99506.41;20927513;28;20033;-72
2023/05/02 16:14:38;;;;;;;10.23;0.90;;;;;;;20.62;43.02;99484.22;20923243;28;20045;-72
2023/05/02 16:24:40;;;;;;;8.38;0.60;;;;;;;20.84;42.86;99508.44;20903281;28;20041;-71
2023/05/02 16:34:44;;;;;;;0.73;0.38;;;;;;;20.72;42.86;99503.47;20921728;28;20037;-71
2023/05/02 16:44:47;;;;;;;6.22;0.60;;;;;;;20.70;43.04;99512.09;20921412;28;20103;-72
2023/05/02 16:54:49;;;;;;;4.32;0.45;;;;;;;20.81;42.58;99529.38;20920618;28;20036;-71
2023/05/02 17:04:53;;;;;;;2.13;0.40;;;;;;;20.72;42.40;99520.97;20919531;28;20029;-71
2023/05/02 17:14:54;;;;;;;0.90;0.40;;;;;;;20.65;42.51;99515.00;20918883;28;20431;-72
2023/05/02 17:24:55;;;;;;;2.53;0.30;;;;;;;20.78;42.35;99553.06;20916252;28;20045;-72
2023/05/02 17:34:57;;;;;;;1.77;0.63;;;;;;;20.71;42.10;99547.13;20917533;28;20070;-72
2023/05/02 17:44:58;;;;;;;0.80;0.30;;;;;;;20.74;42.32;99554.81;20916664;28;20055;-72
2023/05/02 17:55:00;;;;;;;3.53;0.50;;;;;;;20.63;42.47;99535.91;20916087;28;20033;-71
2023/05/02 18:05:02;;;;;;;1.10;0.30;;;;;;;20.60;42.52;99556.81;20914706;28;20480;-72
2023/05/02 18:15:05;;;;;;;0.40;0.30;;;;;;;20.63;42.03;99561.75;20913966;28;20041;-72
2023/05/02 18:25:07;;;;;;;1.10;0.40;;;;;;;20.65;42.13;99547.53;20894966;28;20472;-71
2023/05/02 18:35:11;;;;;;;1.30;0.32;;;;;;;20.51;42.07;99555.91;20911235;28;20083;-72
2023/05/02 18:45:13;;;;;;;0.30;0.30;;;;;;;20.74;41.85;99579.84;20912258;28;20457;-72
2023/05/02 18:55:14;;;;;;;1.00;0.28;;;;;;;20.58;42.24;99564.66;20911073;28;20036;-72
2023/05/02 19:05:18;;;;;;;1.67;0.35;;;;;;;20.77;41.56;99587.56;20897063;28;20045;-71
2023/05/02 19:15:25;;;;;;;0.57;0.30;;;;;;;20.79;41.57;99582.50;20968197;28;20049;-71
2023/05/02 19:25:26;;;;;;;0.95;0.40;;;;;;;20.61;41.34;99552.88;20992141;28;20043;-72
2023/05/02 19:35:32;;;;;;;0.28;0.22;;;;;;;20.79;41.49;99588.06;20973538;28;20048;-71
2023/05/02 19:45:34;;;;;;;0.63;0.30;;;;;;;20.74;41.42;99567.91;21001336;28;20040;-71
2023/05/02 19:55:35;;;;;;;0.30;0.30;;;;;;;20.75;41.36;99573.13;21007917;28;20024;-71
2023/05/02 20:05:39;;;;;;;1.77;0.30;;;;;;;20.66;41.44;99555.56;21007101;28;20029;-72
2023/05/02 20:15:41;;;;;;;0.63;0.40;;;;;;;20.76;41.51;99585.94;21006312;28;20110;-72
2023/05/02 20:25:44;;;;;;;0.35;0.30;;;;;;;20.63;41.60;99567.31;20987486;28;20079;-72
2023/05/02 20:35:55;;;;;;;0.52;0.30;;;;;;;20.69;41.35;99599.41;21004739;28;20376;-72
2023/05/02 20:46:07;;;;;;;0.28;0.22;;;;;;;20.71;40.90;99607.44;21004584;28;20028;-71
2023/05/02 20:56:11;;;;;;;0.30;0.30;;;;;;;20.73;41.09;99607.97;21003117;28;20036;-71
2023/05/02 21:06:12;;;;;;;0.30;0.30;;;;;;;20.58;40.93;99598.00;20983756;28;20033;-71
2023/05/02 21:16:18;;;;;;;1.60;0.43;;;;;;;20.13;41.13;99531.13;21000180;28;20051;-71
2023/05/02 21:26:19;;;;;;;0.40;0.40;;;;;;;20.47;41.36;99596.53;21001036;28;20036;-71
2023/05/02 21:36:20;;;;;;;0.38;0.35;;;;;;;20.54;41.27;99611.69;21000198;28;20037;-72
2023/05/02 21:46:22;;;;;;;0.20;0.20;;;;;;;20.48;41.36;99603.75;20999795;28;20472;-72
2023/05/02 21:56:23;;;;;;;0.35;0.20;;;;;;;20.68;41.17;99652.53;20989383;28;20464;-70
2023/05/02 22:06:25;;;;;;;0.30;0.30;;;;;;;20.50;40.87;99629.28;20994867;28;20033;-70
2023/05/02 22:16:26;;;;;;;0.40;0.30;;;;;;;20.67;40.73;99685.09;20946909;28;20496;-70
2023/05/02 22:26:27;;;;;;;0.30;0.25;;;;;;;20.65;41.05;99690.13;20965395;28;20838;-70
2023/05/02 22:36:29;;;;;;;0.95;0.30;;;;;;;20.41;41.19;99658.91;20993020;28;20040;-70
2023/05/02 22:46:30;;;;;;;0.80;0.40;;;;;;;20.46;41.42;99681.03;20923528;28;20139;-71
2023/05/02 22:56:31;;;;;;;0.30;0.30;;;;;;;20.65;41.49;99714.31;20927425;28;20090;-70
2023/05/02 23:06:32;;;;;;;0.55;0.40;;;;;;;20.65;41.32;99714.31;20951539;28;20020;-70
2023/05/02 23:16:34;;;;;;;0.50;0.30;;;;;;;20.65;41.49;99726.25;20969268;28;20439;-70
2023/05/02 23:26:35;;;;;;;0.38;0.28;;;;;;;20.48;41.48;99706.56;20946661;28;20044;-69
2023/05/02 23:36:38;;;;;;;0.20;0.20;;;;;;;20.52;41.41;99722.31;20974297;28;20062;-70
2023/05/02 23:46:39;;;;;;;1.92;0.50;;;;;;;20.53;41.65;99745.41;20990308;28;20044;-69
2023/05/02 23:56:46;;;;;;;0.30;0.30;;;;;;;20.61;41.36;99783.59;20990458;28;20086;-69
